sensor_id;sensor_type;location;lat;lon;timestamp;P1;durP1;ratioP1;P2;durP2;ratioP2
67278;SDS011;54193;53.746;10.058;2023-09-18T00:02:44;11.53;;;6.90;;
67278;SDS011;54193;53.746;10.058;2023-09-18T00:05:30;9.57;;;6.03;;
67278;SDS011;54193;53.746;10.058;2023-09-18T00:08:17;10.30;;;6.55;;
67278;SDS011;54193;53.746;10.058;2023-09-18T00:11:03;11.02;;;6.70;;
67278;SDS011;54193;53.746;10.058;2023-09-18T00:13:48;11.48;;;6.72;;
67278;SDS011;54193;53.746;10.058;2023-09-18T00:16:34;10.73;;;6.72;;
67278;SDS011;54193;53.746;10.058;2023-09-18T00:19:20;11.18;;;6.88;;
67278;SDS011;54193;53.746;10.058;2023-09-18T00:22:06;11.27;;;6.97;;
67278;SDS011;54193;53.746;10.058;2023-09-18T00:24:51;10.85;;;7.38;;
67278;SDS011;54193;53.746;10.058;2023-09-18T00:27:37;11.63;;;6.68;;
67278;SDS011;54193;53.746;10.058;2023-09-18T00:30:23;9.67;;;6.10;;
67278;SDS011;54193;53.746;10.058;2023-09-18T00:33:08;11.65;;;7.00;;
67278;SDS011;54193;53.746;10.058;2023-09-18T00:35:54;11.13;;;6.50;;
67278;SDS011;54193;53.746;10.058;2023-09-18T00:38:39;10.63;;;6.75;;
67278;SDS011;54193;53.746;10.058;2023-09-18T00:41:25;10.95;;;6.32;;
67278;SDS011;54193;53.746;10.058;2023-09-18T00:44:11;9.48;;;6.10;;
67278;SDS011;54193;53.746;10.058;2023-09-18T00:46:56;8.68;;;5.20;;
67278;SDS011;54193;53.746;10.058;2023-09-18T00:49:43;10.60;;;6.63;;
67278;SDS011;54193;53.746;10.058;2023-09-18T00:52:31;12.30;;;7.10;;
67278;SDS011;54193;53.746;10.058;2023-09-18T00:55:18;10.98;;;6.15;;
67278;SDS011;54193;53.746;10.058;2023-09-18T00:58:05;9.40;;;5.30;;
67278;SDS011;54193;53.746;10.058;2023-09-18T01:00:52;11.07;;;6.95;;
67278;SDS011;54193;53.746;10.058;2023-09-18T01:03:38;11.68;;;7.25;;
67278;SDS011;54193;53.746;10.058;2023-09-18T01:06:24;11.63;;;7.30;;
67278;SDS011;54193;53.746;10.058;2023-09-18T01:09:13;10.15;;;6.30;;
67278;SDS011;54193;53.746;10.058;2023-09-18T01:12:19;12.15;;;7.13;;
67278;SDS011;54193;53.746;10.058;2023-09-18T01:15:07;10.75;;;6.75;;
67278;SDS011;54193;53.746;10.058;2023-09-18T01:18:11;10.60;;;7.10;;
67278;SDS011;54193;53.746;10.058;2023-09-18T01:20:56;10.65;;;7.10;;
67278;SDS011;54193;53.746;10.058;2023-09-18T01:23:42;11.65;;;7.28;;
67278;SDS011;54193;53.746;10.058;2023-09-18T01:26:27;12.10;;;7.43;;
67278;SDS011;54193;53.746;10.058;2023-09-18T01:29:13;11.40;;;6.97;;
67278;SDS011;54193;53.746;10.058;2023-09-18T01:31:59;11.57;;;7.38;;
67278;SDS011;54193;53.746;10.058;2023-09-18T01:34:45;11.75;;;7.55;;
67278;SDS011;54193;53.746;10.058;2023-09-18T01:37:32;11.55;;;8.00;;
67278;SDS011;54193;53.746;10.058;2023-09-18T01:40:20;11.35;;;7.75;;
67278;SDS011;54193;53.746;10.058;2023-09-18T01:43:06;13.10;;;8.02;;
67278;SDS011;54193;53.746;10.058;2023-09-18T01:45:52;11.40;;;7.53;;
67278;SDS011;54193;53.746;10.058;2023-09-18T01:48:40;13.05;;;7.90;;
67278;SDS011;54193;53.746;10.058;2023-09-18T01:51:30;11.52;;;7.75;;
67278;SDS011;54193;53.746;10.058;2023-09-18T01:54:16;11.20;;;7.53;;
67278;SDS011;54193;53.746;10.058;2023-09-18T01:57:02;11.93;;;7.90;;
67278;SDS011;54193;53.746;10.058;2023-09-18T01:59:48;12.35;;;7.85;;
67278;SDS011;54193;53.746;10.058;2023-09-18T02:02:35;12.20;;;7.80;;
67278;SDS011;54193;53.746;10.058;2023-09-18T02:05:21;11.90;;;7.88;;
67278;SDS011;54193;53.746;10.058;2023-09-18T02:08:07;11.32;;;7.60;;
67278;SDS011;54193;53.746;10.058;2023-09-18T02:10:52;11.75;;;7.55;;
67278;SDS011;54193;53.746;10.058;2023-09-18T02:13:38;12.97;;;8.10;;
67278;SDS011;54193;53.746;10.058;2023-09-18T02:16:24;13.10;;;8.55;;
67278;SDS011;54193;53.746;10.058;2023-09-18T02:19:10;13.05;;;8.52;;
67278;SDS011;54193;53.746;10.058;2023-09-18T02:21:56;12.87;;;8.30;;
67278;SDS011;54193;53.746;10.058;2023-09-18T02:24:43;14.15;;;8.73;;
67278;SDS011;54193;53.746;10.058;2023-09-18T02:27:28;13.93;;;8.43;;
67278;SDS011;54193;53.746;10.058;2023-09-18T02:30:14;13.30;;;8.60;;
67278;SDS011;54193;53.746;10.058;2023-09-18T02:32:59;15.77;;;9.23;;
67278;SDS011;54193;53.746;10.058;2023-09-18T02:35:48;14.73;;;8.80;;
67278;SDS011;54193;53.746;10.058;2023-09-18T02:38:34;13.65;;;8.65;;
67278;SDS011;54193;53.746;10.058;2023-09-18T02:41:19;13.50;;;8.77;;
67278;SDS011;54193;53.746;10.058;2023-09-18T02:44:05;13.00;;;8.55;;
67278;SDS011;54193;53.746;10.058;2023-09-18T02:46:50;13.55;;;8.85;;
67278;SDS011;54193;53.746;10.058;2023-09-18T02:49:36;12.73;;;8.43;;
67278;SDS011;54193;53.746;10.058;2023-09-18T02:52:22;12.93;;;7.93;;
67278;SDS011;54193;53.746;10.058;2023-09-18T02:55:08;12.95;;;8.05;;
67278;SDS011;54193;53.746;10.058;2023-09-18T02:57:55;11.70;;;8.38;;
67278;SDS011;54193;53.746;10.058;2023-09-18T03:00:41;12.63;;;8.15;;
67278;SDS011;54193;53.746;10.058;2023-09-18T03:03:28;13.07;;;8.27;;
67278;SDS011;54193;53.746;10.058;2023-09-18T03:06:14;14.00;;;8.13;;
67278;SDS011;54193;53.746;10.058;2023-09-18T03:08:59;12.43;;;7.70;;
67278;SDS011;54193;53.746;10.058;2023-09-18T03:11:45;13.32;;;7.65;;
67278;SDS011;54193;53.746;10.058;2023-09-18T03:14:30;12.02;;;7.72;;
67278;SDS011;54193;53.746;10.058;2023-09-18T03:17:16;13.27;;;8.03;;
67278;SDS011;54193;53.746;10.058;2023-09-18T03:20:02;12.73;;;7.82;;
67278;SDS011;54193;53.746;10.058;2023-09-18T03:22:47;11.95;;;7.70;;
67278;SDS011;54193;53.746;10.058;2023-09-18T03:25:34;12.35;;;7.40;;
67278;SDS011;54193;53.746;10.058;2023-09-18T03:28:21;13.05;;;8.02;;
67278;SDS011;54193;53.746;10.058;2023-09-18T03:31:07;12.02;;;8.20;;
67278;SDS011;54193;53.746;10.058;2023-09-18T03:33:52;12.73;;;8.40;;
67278;SDS011;54193;53.746;10.058;2023-09-18T03:36:38;12.20;;;8.10;;
67278;SDS011;54193;53.746;10.058;2023-09-18T03:39:24;14.43;;;8.40;;
67278;SDS011;54193;53.746;10.058;2023-09-18T03:42:10;12.98;;;8.13;;
67278;SDS011;54193;53.746;10.058;2023-09-18T03:44:55;12.60;;;8.27;;
67278;SDS011;54193;53.746;10.058;2023-09-18T03:47:41;11.68;;;8.02;;
67278;SDS011;54193;53.746;10.058;2023-09-18T03:50:27;11.55;;;8.18;;
67278;SDS011;54193;53.746;10.058;2023-09-18T03:53:12;13.00;;;8.25;;
67278;SDS011;54193;53.746;10.058;2023-09-18T03:55:58;13.30;;;8.32;;
67278;SDS011;54193;53.746;10.058;2023-09-18T03:58:44;13.43;;;8.60;;
67278;SDS011;54193;53.746;10.058;2023-09-18T04:01:34;14.45;;;9.13;;
67278;SDS011;54193;53.746;10.058;2023-09-18T04:04:19;13.00;;;8.30;;
67278;SDS011;54193;53.746;10.058;2023-09-18T04:07:05;12.52;;;8.35;;
67278;SDS011;54193;53.746;10.058;2023-09-18T04:09:51;13.13;;;8.35;;
67278;SDS011;54193;53.746;10.058;2023-09-18T04:12:37;13.17;;;8.30;;
67278;SDS011;54193;53.746;10.058;2023-09-18T04:15:23;13.75;;;8.40;;
67278;SDS011;54193;53.746;10.058;2023-09-18T04:18:08;12.63;;;7.60;;
67278;SDS011;54193;53.746;10.058;2023-09-18T04:20:54;13.55;;;7.28;;
67278;SDS011;54193;53.746;10.058;2023-09-18T04:23:40;14.68;;;8.35;;
67278;SDS011;54193;53.746;10.058;2023-09-18T04:26:25;13.18;;;7.40;;
67278;SDS011;54193;53.746;10.058;2023-09-18T04:29:16;14.30;;;8.45;;
67278;SDS011;54193;53.746;10.058;2023-09-18T04:32:02;14.47;;;8.70;;
67278;SDS011;54193;53.746;10.058;2023-09-18T04:34:49;12.85;;;7.68;;
67278;SDS011;54193;53.746;10.058;2023-09-18T04:37:36;12.32;;;8.05;;
67278;SDS011;54193;53.746;10.058;2023-09-18T04:40:22;14.77;;;8.80;;
67278;SDS011;54193;53.746;10.058;2023-09-18T04:43:09;11.32;;;7.22;;
67278;SDS011;54193;53.746;10.058;2023-09-18T04:45:54;13.02;;;8.15;;
67278;SDS011;54193;53.746;10.058;2023-09-18T04:48:40;13.48;;;8.50;;
67278;SDS011;54193;53.746;10.058;2023-09-18T04:51:26;14.73;;;7.53;;
67278;SDS011;54193;53.746;10.058;2023-09-18T04:54:12;13.40;;;7.97;;
67278;SDS011;54193;53.746;10.058;2023-09-18T04:56:58;14.77;;;8.50;;
67278;SDS011;54193;53.746;10.058;2023-09-18T04:59:44;13.07;;;7.33;;
67278;SDS011;54193;53.746;10.058;2023-09-18T05:02:29;13.30;;;8.38;;
67278;SDS011;54193;53.746;10.058;2023-09-18T05:05:15;14.02;;;8.48;;
67278;SDS011;54193;53.746;10.058;2023-09-18T05:08:01;11.33;;;6.40;;
67278;SDS011;54193;53.746;10.058;2023-09-18T05:10:52;13.73;;;7.32;;
67278;SDS011;54193;53.746;10.058;2023-09-18T05:13:38;12.35;;;6.40;;
67278;SDS011;54193;53.746;10.058;2023-09-18T05:16:24;12.30;;;8.23;;
67278;SDS011;54193;53.746;10.058;2023-09-18T05:19:09;13.27;;;8.25;;
67278;SDS011;54193;53.746;10.058;2023-09-18T05:21:56;13.38;;;8.32;;
67278;SDS011;54193;53.746;10.058;2023-09-18T05:24:41;13.18;;;8.85;;
67278;SDS011;54193;53.746;10.058;2023-09-18T05:27:27;14.00;;;9.10;;
67278;SDS011;54193;53.746;10.058;2023-09-18T05:30:17;13.52;;;8.85;;
67278;SDS011;54193;53.746;10.058;2023-09-18T05:33:07;14.95;;;8.75;;
67278;SDS011;54193;53.746;10.058;2023-09-18T05:35:53;14.07;;;8.30;;
67278;SDS011;54193;53.746;10.058;2023-09-18T05:38:39;11.00;;;7.68;;
67278;SDS011;54193;53.746;10.058;2023-09-18T05:41:24;11.77;;;7.70;;
67278;SDS011;54193;53.746;10.058;2023-09-18T05:44:11;14.80;;;8.45;;
67278;SDS011;54193;53.746;10.058;2023-09-18T05:46:57;13.65;;;8.55;;
67278;SDS011;54193;53.746;10.058;2023-09-18T05:49:43;12.60;;;7.93;;
67278;SDS011;54193;53.746;10.058;2023-09-18T05:52:28;12.13;;;7.63;;
67278;SDS011;54193;53.746;10.058;2023-09-18T05:55:14;12.37;;;7.70;;
67278;SDS011;54193;53.746;10.058;2023-09-18T05:58:00;11.52;;;7.50;;
67278;SDS011;54193;53.746;10.058;2023-09-18T06:00:47;11.70;;;6.43;;
67278;SDS011;54193;53.746;10.058;2023-09-18T06:03:32;12.97;;;7.60;;
67278;SDS011;54193;53.746;10.058;2023-09-18T06:06:20;11.02;;;6.45;;
67278;SDS011;54193;53.746;10.058;2023-09-18T06:09:06;12.35;;;7.30;;
67278;SDS011;54193;53.746;10.058;2023-09-18T06:11:52;10.48;;;5.93;;
67278;SDS011;54193;53.746;10.058;2023-09-18T06:14:37;12.00;;;6.72;;
67278;SDS011;54193;53.746;10.058;2023-09-18T06:17:23;10.40;;;6.40;;
67278;SDS011;54193;53.746;10.058;2023-09-18T06:20:10;7.97;;;4.50;;
67278;SDS011;54193;53.746;10.058;2023-09-18T06:22:57;13.67;;;7.37;;
67278;SDS011;54193;53.746;10.058;2023-09-18T06:25:43;12.25;;;7.82;;
67278;SDS011;54193;53.746;10.058;2023-09-18T06:28:29;7.82;;;4.80;;
67278;SDS011;54193;53.746;10.058;2023-09-18T06:31:15;9.20;;;4.83;;
67278;SDS011;54193;53.746;10.058;2023-09-18T06:34:01;7.95;;;4.60;;
67278;SDS011;54193;53.746;10.058;2023-09-18T06:36:47;8.70;;;5.10;;
67278;SDS011;54193;53.746;10.058;2023-09-18T06:39:32;12.18;;;6.78;;
67278;SDS011;54193;53.746;10.058;2023-09-18T06:42:18;13.35;;;7.22;;
67278;SDS011;54193;53.746;10.058;2023-09-18T06:45:04;10.80;;;5.68;;
67278;SDS011;54193;53.746;10.058;2023-09-18T06:47:52;11.80;;;6.50;;
67278;SDS011;54193;53.746;10.058;2023-09-18T06:50:38;7.07;;;3.97;;
67278;SDS011;54193;53.746;10.058;2023-09-18T06:53:24;14.07;;;6.90;;
67278;SDS011;54193;53.746;10.058;2023-09-18T06:56:10;11.07;;;6.90;;
67278;SDS011;54193;53.746;10.058;2023-09-18T06:58:57;13.83;;;6.87;;
67278;SDS011;54193;53.746;10.058;2023-09-18T07:01:43;13.18;;;7.30;;
67278;SDS011;54193;53.746;10.058;2023-09-18T07:04:29;7.38;;;4.45;;
67278;SDS011;54193;53.746;10.058;2023-09-18T07:07:15;11.70;;;7.55;;
67278;SDS011;54193;53.746;10.058;2023-09-18T07:10:01;11.40;;;6.45;;
67278;SDS011;54193;53.746;10.058;2023-09-18T07:12:47;10.02;;;6.38;;
67278;SDS011;54193;53.746;10.058;2023-09-18T07:15:33;8.60;;;4.78;;
67278;SDS011;54193;53.746;10.058;2023-09-18T07:18:19;14.10;;;7.10;;
67278;SDS011;54193;53.746;10.058;2023-09-18T07:21:04;11.00;;;6.90;;
67278;SDS011;54193;53.746;10.058;2023-09-18T07:23:50;8.55;;;5.55;;
67278;SDS011;54193;53.746;10.058;2023-09-18T07:26:36;5.10;;;3.20;;
67278;SDS011;54193;53.746;10.058;2023-09-18T07:29:22;11.75;;;6.22;;
67278;SDS011;54193;53.746;10.058;2023-09-18T07:32:10;11.95;;;5.68;;
67278;SDS011;54193;53.746;10.058;2023-09-18T07:34:56;8.68;;;4.38;;
67278;SDS011;54193;53.746;10.058;2023-09-18T07:37:51;10.13;;;5.60;;
67278;SDS011;54193;53.746;10.058;2023-09-18T07:40:37;9.98;;;5.32;;
67278;SDS011;54193;53.746;10.058;2023-09-18T07:43:23;10.52;;;5.95;;
67278;SDS011;54193;53.746;10.058;2023-09-18T07:46:10;10.02;;;6.22;;
67278;SDS011;54193;53.746;10.058;2023-09-18T07:48:55;10.15;;;6.35;;
67278;SDS011;54193;53.746;10.058;2023-09-18T07:51:41;9.57;;;6.13;;
67278;SDS011;54193;53.746;10.058;2023-09-18T07:54:29;10.40;;;6.55;;
67278;SDS011;54193;53.746;10.058;2023-09-18T07:57:15;10.55;;;6.28;;
67278;SDS011;54193;53.746;10.058;2023-09-18T08:00:01;10.23;;;5.60;;
67278;SDS011;54193;53.746;10.058;2023-09-18T08:02:55;10.05;;;6.15;;
67278;SDS011;54193;53.746;10.058;2023-09-18T08:05:46;8.30;;;4.55;;
67278;SDS011;54193;53.746;10.058;2023-09-18T08:08:32;10.48;;;6.82;;
67278;SDS011;54193;53.746;10.058;2023-09-18T08:11:18;8.85;;;5.90;;
67278;SDS011;54193;53.746;10.058;2023-09-18T08:14:04;9.50;;;5.88;;
67278;SDS011;54193;53.746;10.058;2023-09-18T08:16:55;9.15;;;5.80;;
67278;SDS011;54193;53.746;10.058;2023-09-18T08:19:42;10.33;;;6.00;;
67278;SDS011;54193;53.746;10.058;2023-09-18T08:22:29;6.68;;;3.75;;
67278;SDS011;54193;53.746;10.058;2023-09-18T08:25:15;9.85;;;6.20;;
67278;SDS011;54193;53.746;10.058;2023-09-18T08:28:01;9.50;;;6.70;;
67278;SDS011;54193;53.746;10.058;2023-09-18T08:30:47;9.77;;;6.22;;
67278;SDS011;54193;53.746;10.058;2023-09-18T08:33:32;8.35;;;6.00;;
67278;SDS011;54193;53.746;10.058;2023-09-18T08:36:20;8.02;;;5.28;;
67278;SDS011;54193;53.746;10.058;2023-09-18T08:39:07;8.80;;;6.10;;
67278;SDS011;54193;53.746;10.058;2023-09-18T08:41:53;10.20;;;6.63;;
67278;SDS011;54193;53.746;10.058;2023-09-18T08:44:49;8.15;;;5.82;;
67278;SDS011;54193;53.746;10.058;2023-09-18T08:47:39;8.57;;;5.40;;
67278;SDS011;54193;53.746;10.058;2023-09-18T08:50:26;9.02;;;6.05;;
67278;SDS011;54193;53.746;10.058;2023-09-18T08:53:12;9.95;;;5.80;;
67278;SDS011;54193;53.746;10.058;2023-09-18T08:55:58;8.87;;;5.80;;
67278;SDS011;54193;53.746;10.058;2023-09-18T08:58:47;8.35;;;5.57;;
67278;SDS011;54193;53.746;10.058;2023-09-18T09:01:33;10.43;;;5.65;;
67278;SDS011;54193;53.746;10.058;2023-09-18T09:04:19;9.48;;;5.90;;
67278;SDS011;54193;53.746;10.058;2023-09-18T09:07:04;9.85;;;6.00;;
67278;SDS011;54193;53.746;10.058;2023-09-18T09:09:50;8.68;;;5.93;;
67278;SDS011;54193;53.746;10.058;2023-09-18T09:12:52;7.90;;;4.72;;
67278;SDS011;54193;53.746;10.058;2023-09-18T09:15:43;9.53;;;5.60;;
67278;SDS011;54193;53.746;10.058;2023-09-18T09:18:31;9.07;;;5.50;;
67278;SDS011;54193;53.746;10.058;2023-09-18T09:21:18;9.23;;;5.60;;
67278;SDS011;54193;53.746;10.058;2023-09-18T09:24:04;7.67;;;4.20;;
67278;SDS011;54193;53.746;10.058;2023-09-18T09:26:57;10.02;;;6.00;;
67278;SDS011;54193;53.746;10.058;2023-09-18T09:29:57;10.18;;;4.88;;
67278;SDS011;54193;53.746;10.058;2023-09-18T09:32:49;8.63;;;6.03;;
67278;SDS011;54193;53.746;10.058;2023-09-18T09:35:36;6.88;;;4.20;;
67278;SDS011;54193;53.746;10.058;2023-09-18T09:38:32;7.68;;;4.57;;
67278;SDS011;54193;53.746;10.058;2023-09-18T09:41:19;8.02;;;5.63;;
67278;SDS011;54193;53.746;10.058;2023-09-18T09:44:04;8.20;;;5.60;;
67278;SDS011;54193;53.746;10.058;2023-09-18T09:46:50;8.50;;;5.93;;
67278;SDS011;54193;53.746;10.058;2023-09-18T09:49:46;8.90;;;5.68;;
67278;SDS011;54193;53.746;10.058;2023-09-18T09:52:33;9.07;;;5.57;;
67278;SDS011;54193;53.746;10.058;2023-09-18T09:55:20;9.65;;;5.90;;
67278;SDS011;54193;53.746;10.058;2023-09-18T09:58:08;9.63;;;6.10;;
67278;SDS011;54193;53.746;10.058;2023-09-18T10:00:56;8.82;;;6.10;;
67278;SDS011;54193;53.746;10.058;2023-09-18T10:03:46;7.65;;;4.45;;
67278;SDS011;54193;53.746;10.058;2023-09-18T10:06:33;5.75;;;3.53;;
67278;SDS011;54193;53.746;10.058;2023-09-18T10:09:20;8.18;;;5.60;;
67278;SDS011;54193;53.746;10.058;2023-09-18T10:12:12;7.95;;;4.72;;
67278;SDS011;54193;53.746;10.058;2023-09-18T10:15:05;8.32;;;5.22;;
67278;SDS011;54193;53.746;10.058;2023-09-18T10:17:55;9.40;;;5.93;;
67278;SDS011;54193;53.746;10.058;2023-09-18T10:20:45;9.65;;;5.47;;
67278;SDS011;54193;53.746;10.058;2023-09-18T10:23:38;9.30;;;5.28;;
67278;SDS011;54193;53.746;10.058;2023-09-18T10:26:50;7.97;;;5.40;;
67278;SDS011;54193;53.746;10.058;2023-09-18T10:29:41;9.23;;;5.55;;
67278;SDS011;54193;53.746;10.058;2023-09-18T10:32:27;6.28;;;3.92;;
67278;SDS011;54193;53.746;10.058;2023-09-18T10:35:14;9.10;;;4.97;;
67278;SDS011;54193;53.746;10.058;2023-09-18T10:38:00;7.60;;;4.10;;
67278;SDS011;54193;53.746;10.058;2023-09-18T10:40:47;9.02;;;5.70;;
67278;SDS011;54193;53.746;10.058;2023-09-18T10:43:35;9.27;;;5.30;;
67278;SDS011;54193;53.746;10.058;2023-09-18T10:46:20;8.97;;;5.87;;
67278;SDS011;54193;53.746;10.058;2023-09-18T10:49:06;10.38;;;6.28;;
67278;SDS011;54193;53.746;10.058;2023-09-18T10:51:53;8.95;;;5.63;;
67278;SDS011;54193;53.746;10.058;2023-09-18T10:54:39;7.57;;;4.70;;
67278;SDS011;54193;53.746;10.058;2023-09-18T10:57:25;9.75;;;5.80;;
67278;SDS011;54193;53.746;10.058;2023-09-18T11:00:11;11.33;;;6.20;;
67278;SDS011;54193;53.746;10.058;2023-09-18T11:03:09;9.13;;;5.95;;
67278;SDS011;54193;53.746;10.058;2023-09-18T11:06:07;9.18;;;4.43;;
67278;SDS011;54193;53.746;10.058;2023-09-18T11:08:59;10.93;;;5.45;;
67278;SDS011;54193;53.746;10.058;2023-09-18T11:11:52;10.13;;;5.40;;
67278;SDS011;54193;53.746;10.058;2023-09-18T11:17:32;9.57;;;5.38;;
67278;SDS011;54193;53.746;10.058;2023-09-18T11:20:24;8.50;;;4.97;;
67278;SDS011;54193;53.746;10.058;2023-09-18T11:25:58;8.52;;;4.60;;
67278;SDS011;54193;53.746;10.058;2023-09-18T11:28:44;8.23;;;4.50;;
67278;SDS011;54193;53.746;10.058;2023-09-18T11:31:40;8.50;;;4.97;;
67278;SDS011;54193;53.746;10.058;2023-09-18T11:34:30;9.02;;;4.88;;
67278;SDS011;54193;53.746;10.058;2023-09-18T11:37:24;7.70;;;4.45;;
67278;SDS011;54193;53.746;10.058;2023-09-18T11:43:26;8.32;;;4.40;;
67278;SDS011;54193;53.746;10.058;2023-09-18T11:46:19;10.52;;;4.57;;
67278;SDS011;54193;53.746;10.058;2023-09-18T11:49:09;8.50;;;4.23;;
67278;SDS011;54193;53.746;10.058;2023-09-18T11:51:57;7.40;;;4.65;;
67278;SDS011;54193;53.746;10.058;2023-09-18T11:54:44;9.23;;;4.32;;
67278;SDS011;54193;53.746;10.058;2023-09-18T11:57:35;7.27;;;4.10;;
67278;SDS011;54193;53.746;10.058;2023-09-18T12:00:21;9.70;;;4.47;;
67278;SDS011;54193;53.746;10.058;2023-09-18T12:03:15;9.65;;;4.75;;
67278;SDS011;54193;53.746;10.058;2023-09-18T12:06:03;9.23;;;4.13;;
67278;SDS011;54193;53.746;10.058;2023-09-18T12:08:52;10.60;;;4.43;;
67278;SDS011;54193;53.746;10.058;2023-09-18T12:11:40;7.80;;;4.38;;
67278;SDS011;54193;53.746;10.058;2023-09-18T12:14:27;9.93;;;4.20;;
67278;SDS011;54193;53.746;10.058;2023-09-18T12:17:15;8.60;;;3.90;;
67278;SDS011;54193;53.746;10.058;2023-09-18T12:20:01;9.40;;;4.55;;
67278;SDS011;54193;53.746;10.058;2023-09-18T12:22:49;9.18;;;4.22;;
67278;SDS011;54193;53.746;10.058;2023-09-18T12:25:35;7.83;;;4.13;;
67278;SDS011;54193;53.746;10.058;2023-09-18T12:28:21;10.75;;;4.05;;
67278;SDS011;54193;53.746;10.058;2023-09-18T12:31:11;9.25;;;4.70;;
67278;SDS011;54193;53.746;10.058;2023-09-18T12:33:57;10.80;;;4.38;;
67278;SDS011;54193;53.746;10.058;2023-09-18T12:36:43;8.40;;;4.20;;
67278;SDS011;54193;53.746;10.058;2023-09-18T12:39:32;9.60;;;4.20;;
67278;SDS011;54193;53.746;10.058;2023-09-18T12:42:18;7.82;;;3.97;;
67278;SDS011;54193;53.746;10.058;2023-09-18T12:45:04;7.77;;;3.80;;
67278;SDS011;54193;53.746;10.058;2023-09-18T12:47:53;12.82;;;4.07;;
67278;SDS011;54193;53.746;10.058;2023-09-18T12:50:40;8.23;;;3.60;;
67278;SDS011;54193;53.746;10.058;2023-09-18T12:53:26;11.73;;;4.50;;
67278;SDS011;54193;53.746;10.058;2023-09-18T12:56:12;6.85;;;3.50;;
67278;SDS011;54193;53.746;10.058;2023-09-18T12:58:59;11.32;;;4.10;;
67278;SDS011;54193;53.746;10.058;2023-09-18T13:01:47;6.30;;;3.45;;
67278;SDS011;54193;53.746;10.058;2023-09-18T13:04:34;6.70;;;3.97;;
67278;SDS011;54193;53.746;10.058;2023-09-18T13:07:22;9.13;;;3.88;;
67278;SDS011;54193;53.746;10.058;2023-09-18T13:10:09;6.68;;;3.80;;
67278;SDS011;54193;53.746;10.058;2023-09-18T13:12:55;7.90;;;3.60;;
67278;SDS011;54193;53.746;10.058;2023-09-18T13:15:41;7.95;;;4.03;;
67278;SDS011;54193;53.746;10.058;2023-09-18T13:18:29;7.68;;;3.70;;
67278;SDS011;54193;53.746;10.058;2023-09-18T13:21:15;8.50;;;4.10;;
67278;SDS011;54193;53.746;10.058;2023-09-18T13:24:00;8.48;;;3.85;;
67278;SDS011;54193;53.746;10.058;2023-09-18T13:26:49;8.55;;;3.88;;
67278;SDS011;54193;53.746;10.058;2023-09-18T13:29:35;6.82;;;3.83;;
67278;SDS011;54193;53.746;10.058;2023-09-18T13:32:20;7.23;;;3.80;;
67278;SDS011;54193;53.746;10.058;2023-09-18T13:35:06;6.88;;;3.67;;
67278;SDS011;54193;53.746;10.058;2023-09-18T13:37:52;7.05;;;3.92;;
67278;SDS011;54193;53.746;10.058;2023-09-18T13:40:41;7.73;;;3.70;;
67278;SDS011;54193;53.746;10.058;2023-09-18T13:43:30;8.48;;;3.53;;
67278;SDS011;54193;53.746;10.058;2023-09-18T13:46:19;9.82;;;3.70;;
67278;SDS011;54193;53.746;10.058;2023-09-18T13:49:05;7.70;;;3.70;;
67278;SDS011;54193;53.746;10.058;2023-09-18T13:51:51;6.75;;;3.53;;
67278;SDS011;54193;53.746;10.058;2023-09-18T13:54:37;6.43;;;3.03;;
67278;SDS011;54193;53.746;10.058;2023-09-18T13:57:22;6.45;;;3.50;;
67278;SDS011;54193;53.746;10.058;2023-09-18T14:00:09;5.80;;;3.38;;
67278;SDS011;54193;53.746;10.058;2023-09-18T14:02:57;4.72;;;3.20;;
67278;SDS011;54193;53.746;10.058;2023-09-18T14:05:43;6.35;;;3.13;;
67278;SDS011;54193;53.746;10.058;2023-09-18T14:08:29;7.87;;;3.23;;
67278;SDS011;54193;53.746;10.058;2023-09-18T14:11:14;8.85;;;4.43;;
67278;SDS011;54193;53.746;10.058;2023-09-18T14:14:01;7.45;;;3.60;;
67278;SDS011;54193;53.746;10.058;2023-09-18T14:16:46;9.27;;;3.47;;
67278;SDS011;54193;53.746;10.058;2023-09-18T14:19:32;7.43;;;3.50;;
67278;SDS011;54193;53.746;10.058;2023-09-18T14:22:18;7.97;;;3.50;;
67278;SDS011;54193;53.746;10.058;2023-09-18T14:25:03;6.63;;;3.55;;
67278;SDS011;54193;53.746;10.058;2023-09-18T14:27:50;7.93;;;3.72;;
67278;SDS011;54193;53.746;10.058;2023-09-18T14:30:36;7.30;;;3.70;;
67278;SDS011;54193;53.746;10.058;2023-09-18T14:33:22;7.85;;;3.78;;
67278;SDS011;54193;53.746;10.058;2023-09-18T14:36:08;6.83;;;4.10;;
67278;SDS011;54193;53.746;10.058;2023-09-18T14:38:53;8.02;;;4.32;;
67278;SDS011;54193;53.746;10.058;2023-09-18T14:41:40;8.63;;;4.20;;
67278;SDS011;54193;53.746;10.058;2023-09-18T14:44:26;8.40;;;4.10;;
67278;SDS011;54193;53.746;10.058;2023-09-18T14:47:15;7.45;;;3.83;;
67278;SDS011;54193;53.746;10.058;2023-09-18T14:50:01;7.57;;;4.10;;
67278;SDS011;54193;53.746;10.058;2023-09-18T14:52:47;6.07;;;3.72;;
67278;SDS011;54193;53.746;10.058;2023-09-18T14:55:33;6.45;;;3.67;;
67278;SDS011;54193;53.746;10.058;2023-09-18T14:58:18;9.27;;;4.75;;
67278;SDS011;54193;53.746;10.058;2023-09-18T15:01:07;6.45;;;3.50;;
67278;SDS011;54193;53.746;10.058;2023-09-18T15:03:52;6.90;;;3.63;;
67278;SDS011;54193;53.746;10.058;2023-09-18T15:06:38;7.95;;;4.55;;
67278;SDS011;54193;53.746;10.058;2023-09-18T15:09:24;6.78;;;3.92;;
67278;SDS011;54193;53.746;10.058;2023-09-18T15:12:09;8.37;;;4.40;;
67278;SDS011;54193;53.746;10.058;2023-09-18T15:14:56;6.88;;;4.25;;
67278;SDS011;54193;53.746;10.058;2023-09-18T15:17:42;5.60;;;3.58;;
67278;SDS011;54193;53.746;10.058;2023-09-18T15:20:28;7.50;;;4.03;;
67278;SDS011;54193;53.746;10.058;2023-09-18T15:23:14;8.45;;;4.32;;
67278;SDS011;54193;53.746;10.058;2023-09-18T15:26:01;7.32;;;4.30;;
67278;SDS011;54193;53.746;10.058;2023-09-18T15:28:46;7.28;;;4.00;;
67278;SDS011;54193;53.746;10.058;2023-09-18T15:31:32;7.83;;;4.50;;
67278;SDS011;54193;53.746;10.058;2023-09-18T15:34:19;8.50;;;4.50;;
67278;SDS011;54193;53.746;10.058;2023-09-18T15:37:04;9.13;;;4.43;;
67278;SDS011;54193;53.746;10.058;2023-09-18T15:39:50;8.03;;;4.40;;
67278;SDS011;54193;53.746;10.058;2023-09-18T15:42:36;8.30;;;4.60;;
67278;SDS011;54193;53.746;10.058;2023-09-18T15:45:23;8.02;;;3.88;;
67278;SDS011;54193;53.746;10.058;2023-09-18T15:48:09;9.00;;;4.40;;
67278;SDS011;54193;53.746;10.058;2023-09-18T15:50:54;8.25;;;4.57;;
67278;SDS011;54193;53.746;10.058;2023-09-18T15:53:40;6.82;;;4.50;;
67278;SDS011;54193;53.746;10.058;2023-09-18T15:56:25;8.38;;;3.92;;
67278;SDS011;54193;53.746;10.058;2023-09-18T15:59:11;6.23;;;4.00;;
67278;SDS011;54193;53.746;10.058;2023-09-18T16:01:57;10.57;;;4.40;;
67278;SDS011;54193;53.746;10.058;2023-09-18T16:04:42;5.57;;;3.83;;
67278;SDS011;54193;53.746;10.058;2023-09-18T16:07:28;6.53;;;3.73;;
67278;SDS011;54193;53.746;10.058;2023-09-18T16:10:14;6.05;;;3.53;;
67278;SDS011;54193;53.746;10.058;2023-09-18T16:13:00;5.93;;;3.97;;
67278;SDS011;54193;53.746;10.058;2023-09-18T16:15:46;7.05;;;4.05;;
67278;SDS011;54193;53.746;10.058;2023-09-18T16:18:31;8.70;;;4.30;;
67278;SDS011;54193;53.746;10.058;2023-09-18T16:21:17;6.80;;;4.13;;
67278;SDS011;54193;53.746;10.058;2023-09-18T16:24:02;6.10;;;3.47;;
67278;SDS011;54193;53.746;10.058;2023-09-18T16:26:52;6.50;;;3.83;;
67278;SDS011;54193;53.746;10.058;2023-09-18T16:29:38;6.43;;;3.83;;
67278;SDS011;54193;53.746;10.058;2023-09-18T16:32:24;6.18;;;3.75;;
67278;SDS011;54193;53.746;10.058;2023-09-18T16:35:13;8.87;;;3.77;;